Disclaimer

Please do not use the information listed here in-flight or in-navigation, as they are not provided to us by the airports but are provided by volunteers, so they might be outdated.

Search


Regions


Airport information page

Radio informations:
Tower (TWR) - 121.1 MHz
MUNCHEN INFO - 125.8 MHz
Ground (GND) - 121.8 MHz
Automatic Terminal Information Service (ATIS) - 123.95 MHz
MUNCHEN RADAR - 124.175 MHz

Airport informations:
Latitude: 51° 25' 56.81" N
Longitude: 012° 14' 29.88" E
Elevation: 465 feet - 142 meters
Operating hours: 24 hour operations
Operating agency: Civil government, landing fees and diplomatic clearance may be required
Timezone: UTC+1(+2DT) - Last Sunday in March to last Sunday in October
Fuel: Jet A1, without icing nhibitor.

100/130 MIL Spec, low lead, aviation gasoline (BLUE)

Runway information:
08/26 - 11811 x 148 feet< - >3600 x 45 meters
08R/26L - 11811 x 198 feet< - >3600 x 60 meters

Recent METARs:
EDDP 181920Z 34005KT 5000 -SNRA BKN006 01/M00 Q1025 TEMPO 4000 -SNRA BKN004
EDDP 181950Z 35004KT 6000 VCSH BKN004 01/00 Q1025 NOSIG
EDDP 182020Z 35005KT 3500 -DZ OVC004 02/02 Q1025 TEMPO 2500 -DZ

Airport on the map: